createdAt,value
2018-10-21T00:00:42.683Z,956.68
2018-10-21T00:03:09.043Z,956.65
2018-10-21T00:05:35.307Z,956.63
2018-10-21T00:08:01.610Z,956.69
2018-10-21T00:10:27.908Z,956.62
2018-10-21T00:12:54.237Z,956.61
2018-10-21T00:15:20.618Z,956.60
2018-10-21T00:17:46.890Z,956.63
2018-10-21T00:20:13.194Z,956.60
2018-10-21T00:22:39.492Z,956.60
2018-10-21T00:25:05.787Z,956.53
2018-10-21T00:27:32.093Z,956.54
2018-10-21T00:29:58.396Z,956.57
2018-10-21T00:32:24.705Z,956.46
2018-10-21T00:34:51.003Z,956.51
2018-10-21T00:37:17.325Z,956.52
2018-10-21T00:39:43.693Z,956.50
2018-10-21T00:42:10.014Z,956.45
2018-10-21T00:44:36.315Z,956.48
2018-10-21T00:47:02.682Z,956.46
2018-10-21T00:49:29.005Z,956.39
2018-10-21T00:51:55.312Z,956.40
2018-10-21T00:54:21.637Z,956.37
2018-10-21T00:56:47.970Z,956.38
2018-10-21T00:59:14.295Z,956.39
2018-10-21T01:01:40.624Z,956.37
2018-10-21T01:04:07.005Z,956.37
2018-10-21T01:06:33.248Z,956.37
2018-10-21T01:08:59.595Z,956.32
2018-10-21T01:11:25.893Z,956.11
2018-10-21T01:13:52.196Z,956.26
2018-10-21T01:16:18.517Z,956.29
2018-10-21T01:18:44.834Z,956.30
2018-10-21T01:21:11.259Z,956.27
2018-10-21T01:23:37.499Z,956.21
2018-10-21T01:26:03.812Z,956.19
2018-10-21T01:28:30.146Z,956.10
2018-10-21T01:30:56.445Z,956.14
2018-10-21T01:33:22.745Z,956.13
2018-10-21T01:35:49.052Z,956.15
2018-10-21T01:38:15.423Z,956.15
2018-10-21T01:40:41.672Z,956.07
2018-10-21T01:43:07.978Z,956.05
2018-10-21T01:45:34.303Z,955.95
2018-10-21T01:48:00.610Z,955.98
2018-10-21T01:50:26.975Z,955.94
2018-10-21T01:52:53.347Z,955.92
2018-10-21T01:55:19.672Z,955.89
2018-10-21T01:57:46.038Z,955.88
2018-10-21T02:00:12.362Z,955.85
2018-10-21T02:02:38.663Z,955.88
2018-10-21T02:05:04.965Z,955.88
2018-10-21T02:07:31.289Z,955.86
2018-10-21T02:09:57.592Z,955.87
2018-10-21T02:12:23.891Z,955.78
2018-10-21T02:14:50.201Z,955.77
2018-10-21T02:17:16.524Z,955.77
2018-10-21T02:19:42.826Z,955.75
2018-10-21T02:22:09.123Z,955.74
2018-10-21T02:24:35.423Z,955.81
2018-10-21T02:27:01.779Z,955.78
2018-10-21T02:29:28.050Z,955.85
2018-10-21T02:31:54.358Z,955.87
2018-10-21T02:34:20.685Z,955.83
2018-10-21T02:36:47.011Z,955.82
2018-10-21T02:39:13.382Z,955.78
2018-10-21T02:41:39.635Z,955.82
2018-10-21T02:44:05.971Z,955.81
2018-10-21T02:46:32.266Z,955.84
2018-10-21T02:48:58.599Z,955.89
2018-10-21T02:51:24.902Z,955.89
2018-10-21T02:53:51.251Z,955.86
2018-10-21T02:56:17.573Z,955.95
2018-10-21T02:58:43.881Z,955.93
2018-10-21T03:01:10.213Z,955.90
2018-10-21T03:03:36.548Z,955.93
2018-10-21T03:06:02.873Z,955.96
2018-10-21T03:08:29.197Z,956.05
2018-10-21T03:10:55.550Z,956.02
2018-10-21T03:13:21.896Z,956.06
2018-10-21T03:15:48.221Z,956.00
2018-10-21T03:18:14.542Z,956.05
2018-10-21T03:20:40.816Z,955.98
2018-10-21T03:23:07.116Z,956.02
2018-10-21T03:25:33.415Z,955.96
2018-10-21T03:27:59.710Z,956.00
2018-10-21T03:30:26.007Z,956.01
2018-10-21T03:32:52.310Z,955.94
2018-10-21T03:35:18.611Z,955.93
2018-10-21T03:37:44.980Z,955.88
2018-10-21T03:40:11.366Z,955.90
2018-10-21T03:42:37.682Z,955.90
2018-10-21T03:45:04.006Z,955.85
2018-10-21T03:47:30.303Z,955.82
2018-10-21T03:49:56.633Z,955.79
2018-10-21T03:52:22.963Z,955.85
2018-10-21T03:54:49.263Z,955.84
2018-10-21T03:57:15.643Z,955.79
2018-10-21T03:59:41.944Z,955.76
2018-10-21T04:02:08.275Z,955.81
2018-10-21T04:04:34.571Z,955.84
2018-10-21T04:07:00.871Z,955.85
2018-10-21T04:09:27.169Z,955.84
2018-10-21T04:11:53.516Z,955.84
2018-10-21T04:14:19.851Z,955.85
2018-10-21T04:16:46.194Z,955.81
2018-10-21T04:19:12.567Z,955.76
2018-10-21T04:21:38.891Z,955.84
2018-10-21T04:24:05.191Z,955.80
2018-10-21T04:26:31.517Z,955.72
2018-10-21T04:28:57.885Z,955.72
2018-10-21T04:31:24.184Z,955.70
2018-10-21T04:33:50.527Z,955.68
2018-10-21T04:36:16.844Z,955.64
2018-10-21T04:38:43.220Z,955.58
2018-10-21T04:41:09.539Z,955.65
2018-10-21T04:43:35.861Z,955.60
2018-10-21T04:46:02.170Z,955.60
2018-10-21T04:48:28.461Z,955.55
2018-10-21T04:50:54.758Z,955.57
2018-10-21T04:53:21.056Z,955.62
2018-10-21T04:55:47.355Z,955.65
2018-10-21T04:58:13.746Z,955.62
2018-10-21T05:00:40.018Z,955.67
2018-10-21T05:03:06.301Z,955.63
2018-10-21T05:05:32.627Z,955.62
2018-10-21T05:07:58.953Z,955.64
2018-10-21T05:10:25.254Z,955.63
2018-10-21T05:12:51.603Z,955.61
2018-10-21T05:15:17.993Z,955.67
2018-10-21T05:17:44.246Z,955.69
2018-10-21T05:20:10.570Z,955.70
2018-10-21T05:22:36.894Z,955.70
2018-10-21T05:25:03.219Z,955.67
2018-10-21T05:27:29.519Z,955.63
2018-10-21T05:29:55.848Z,955.65
2018-10-21T05:32:22.168Z,955.64
2018-10-21T05:34:48.465Z,955.62
2018-10-21T05:37:14.789Z,955.67
2018-10-21T05:39:41.117Z,955.75
2018-10-21T05:42:07.436Z,955.81
2018-10-21T05:44:33.738Z,955.88
2018-10-21T05:47:00.104Z,955.84
2018-10-21T05:49:26.425Z,955.82
2018-10-21T05:51:52.797Z,955.81
2018-10-21T05:54:19.090Z,955.86
2018-10-21T05:56:45.392Z,955.90
2018-10-21T05:59:11.730Z,955.91
2018-10-21T06:01:38.057Z,955.90
2018-10-21T06:04:04.379Z,955.98
2018-10-21T06:06:30.660Z,955.95
2018-10-21T06:08:56.985Z,955.90
2018-10-21T06:11:23.350Z,955.89
2018-10-21T06:13:49.668Z,955.87
2018-10-21T06:16:16.023Z,955.91
2018-10-21T06:18:42.271Z,955.87
2018-10-21T06:21:08.573Z,955.99
2018-10-21T06:23:34.935Z,955.95
2018-10-21T06:26:01.205Z,956.00
2018-10-21T06:28:27.507Z,955.98
2018-10-21T06:30:53.803Z,956.05
2018-10-21T06:33:20.151Z,956.01
2018-10-21T06:35:46.480Z,956.00
2018-10-21T06:38:12.824Z,956.05
2018-10-21T06:40:39.154Z,956.03
2018-10-21T06:43:05.504Z,956.12
2018-10-21T06:45:31.891Z,956.06
2018-10-21T06:47:58.179Z,956.14
2018-10-21T06:50:24.475Z,956.12
2018-10-21T06:52:50.802Z,956.07
2018-10-21T06:55:17.134Z,956.11
2018-10-21T06:57:43.544Z,956.08
2018-10-21T07:00:09.783Z,956.12
2018-10-21T07:02:36.159Z,956.10
2018-10-21T07:05:02.483Z,956.14
2018-10-21T07:07:28.860Z,956.21
2018-10-21T07:09:55.213Z,956.14
2018-10-21T07:12:21.526Z,956.19
2018-10-21T07:14:47.845Z,956.16
2018-10-21T07:17:14.301Z,956.17
2018-10-21T07:19:40.595Z,956.14
2018-10-21T07:22:06.934Z,956.19
2018-10-21T07:24:33.230Z,956.17
2018-10-21T07:26:59.524Z,956.25
2018-10-21T07:29:25.860Z,956.19
2018-10-21T07:31:52.191Z,956.15
2018-10-21T07:34:18.563Z,956.15
2018-10-21T07:36:44.822Z,956.09
2018-10-21T07:39:11.120Z,956.02
2018-10-21T07:41:37.423Z,956.10
2018-10-21T07:44:03.732Z,956.07
2018-10-21T07:46:30.094Z,956.09
2018-10-21T07:48:56.445Z,956.13
2018-10-21T07:51:22.725Z,956.07
2018-10-21T07:53:49.625Z,956.06
2018-10-21T07:56:15.929Z,955.97
2018-10-21T07:58:42.246Z,956.02
2018-10-21T08:01:08.582Z,956.01
2018-10-21T08:03:34.875Z,956.03
2018-10-21T08:06:01.225Z,956.02
2018-10-21T08:08:27.608Z,956.12
2018-10-21T08:10:53.884Z,956.09
2018-10-21T08:13:20.210Z,956.01
2018-10-21T08:15:46.507Z,956.04
2018-10-21T08:18:12.833Z,956.02
2018-10-21T08:20:39.166Z,955.99
2018-10-21T08:23:05.507Z,956.00
2018-10-21T08:25:31.830Z,956.00
2018-10-21T08:27:58.204Z,955.97
2018-10-21T08:30:24.562Z,955.96
2018-10-21T08:32:50.880Z,955.87
2018-10-21T08:35:17.197Z,955.91
2018-10-21T08:37:43.518Z,955.92
2018-10-21T08:40:09.953Z,955.92
2018-10-21T08:42:36.215Z,955.97
2018-10-21T08:45:02.556Z,955.92
2018-10-21T08:47:28.851Z,955.95
2018-10-21T08:49:55.188Z,955.90
2018-10-21T08:52:21.490Z,955.93
2018-10-21T08:54:47.807Z,955.94
2018-10-21T08:57:14.124Z,955.94
2018-10-21T08:59:40.463Z,955.91
2018-10-21T09:02:06.870Z,955.88
2018-10-21T09:04:33.131Z,955.91
2018-10-21T09:06:59.491Z,955.95
2018-10-21T09:09:25.799Z,955.91
2018-10-21T09:11:52.181Z,955.86
2018-10-21T09:14:18.513Z,955.88
2018-10-21T09:16:44.881Z,955.89
2018-10-21T09:19:11.165Z,955.89
2018-10-21T09:21:37.479Z,955.91
2018-10-21T09:24:03.847Z,955.88
2018-10-21T09:26:30.219Z,955.83
2018-10-21T09:28:56.534Z,955.82
2018-10-21T09:31:22.870Z,955.85
2018-10-21T09:33:49.188Z,955.79
2018-10-21T09:36:15.519Z,955.65
2018-10-21T09:38:41.847Z,955.64
2018-10-21T09:41:08.168Z,955.66
2018-10-21T09:43:34.484Z,955.64
2018-10-21T09:46:00.858Z,955.60
2018-10-21T09:48:27.162Z,955.55
2018-10-21T09:50:53.464Z,955.55
2018-10-21T09:53:19.790Z,955.53
2018-10-21T09:55:46.108Z,955.48
2018-10-21T09:58:12.518Z,955.43
2018-10-21T10:00:38.825Z,955.40
2018-10-21T10:03:05.198Z,955.34
2018-10-21T10:05:31.572Z,955.31
2018-10-21T10:07:57.883Z,955.22
2018-10-21T10:10:24.198Z,955.27
2018-10-21T10:12:50.577Z,955.31
2018-10-21T10:15:16.889Z,955.22
2018-10-21T10:17:43.290Z,955.29
2018-10-21T10:20:09.545Z,955.26
2018-10-21T10:22:35.872Z,955.19
2018-10-21T10:25:02.198Z,955.15
2018-10-21T10:27:28.517Z,955.18
2018-10-21T10:29:54.849Z,955.15
2018-10-21T10:32:21.166Z,955.11
2018-10-21T10:34:47.571Z,955.13
2018-10-21T10:37:13.948Z,955.11
2018-10-21T10:39:40.188Z,955.07
2018-10-21T10:42:06.607Z,955.10
2018-10-21T10:44:32.833Z,954.99
2018-10-21T10:46:59.149Z,955.02
2018-10-21T10:49:25.483Z,955.00
2018-10-21T10:51:51.815Z,954.99
2018-10-21T10:54:18.141Z,954.99
2018-10-21T10:56:44.489Z,954.96
2018-10-21T10:59:10.827Z,954.99
2018-10-21T11:01:37.155Z,955.02
2018-10-21T11:04:03.498Z,955.06
2018-10-21T11:06:29.820Z,955.01
2018-10-21T11:08:56.133Z,955.01
2018-10-21T11:11:22.475Z,955.03
2018-10-21T11:13:48.822Z,955.00
2018-10-21T11:16:15.207Z,955.06
2018-10-21T11:18:41.471Z,954.96
2018-10-21T11:21:07.795Z,955.02
2018-10-21T11:23:34.172Z,955.05
2018-10-21T11:26:00.503Z,955.00
2018-10-21T11:28:26.833Z,954.98
2018-10-21T11:30:53.165Z,955.00
2018-10-21T11:33:19.492Z,955.10
2018-10-21T11:35:45.795Z,955.10
2018-10-21T11:38:12.137Z,955.05
2018-10-21T11:40:38.503Z,955.07
2018-10-21T11:43:04.813Z,954.99
2018-10-21T11:45:31.197Z,955.07
2018-10-21T11:47:57.549Z,954.98
2018-10-21T11:50:23.847Z,955.07
2018-10-21T11:52:50.171Z,955.12
2018-10-21T11:55:16.558Z,955.05
2018-10-21T11:57:42.835Z,955.07
2018-10-21T12:00:09.193Z,955.10
2018-10-21T12:02:35.510Z,955.18
2018-10-21T12:05:01.838Z,955.16
2018-10-21T12:07:28.155Z,955.21
2018-10-21T12:09:54.509Z,955.18
2018-10-21T12:12:20.814Z,955.15
2018-10-21T12:14:47.134Z,955.20
2018-10-21T12:17:13.515Z,955.20
2018-10-21T12:19:39.878Z,955.25
2018-10-21T12:22:06.196Z,955.25
2018-10-21T12:24:32.506Z,955.27
2018-10-21T12:26:58.835Z,955.26
2018-10-21T12:29:25.169Z,955.30
2018-10-21T12:31:51.497Z,955.25
2018-10-21T12:34:17.906Z,955.27
2018-10-21T12:36:44.151Z,955.27
2018-10-21T12:39:10.522Z,955.25
2018-10-21T12:41:36.841Z,955.26
2018-10-21T12:44:03.201Z,955.28
2018-10-21T12:46:29.524Z,955.24
2018-10-21T12:48:55.877Z,955.18
2018-10-21T12:51:22.256Z,955.21
2018-10-21T12:53:48.579Z,955.24
2018-10-21T12:56:14.953Z,955.29
2018-10-21T12:58:41.297Z,955.31
2018-10-21T13:01:07.750Z,955.30
2018-10-21T13:03:33.946Z,955.35
2018-10-21T13:06:00.302Z,955.39
2018-10-21T13:08:26.646Z,955.31
2018-10-21T13:10:52.976Z,955.44
2018-10-21T13:13:19.330Z,955.41
2018-10-21T13:15:45.641Z,955.41
2018-10-21T13:18:11.963Z,955.40
2018-10-21T13:20:38.281Z,955.38
2018-10-21T13:23:04.612Z,955.43
2018-10-21T13:25:30.944Z,955.38
2018-10-21T13:27:57.280Z,955.36
2018-10-21T13:30:23.599Z,955.35
2018-10-21T13:32:49.922Z,955.34
2018-10-21T13:35:16.249Z,955.31
2018-10-21T13:37:42.569Z,955.35
2018-10-21T13:40:08.983Z,955.43
2018-10-21T13:42:35.256Z,955.47
2018-10-21T13:45:01.556Z,955.44
2018-10-21T13:47:27.882Z,955.46
2018-10-21T13:49:54.205Z,955.47
2018-10-21T13:52:20.528Z,955.46
2018-10-21T13:54:46.853Z,955.52
2018-10-21T13:57:13.171Z,955.55
2018-10-21T13:59:39.491Z,955.47
2018-10-21T14:02:05.818Z,955.59
2018-10-21T14:04:32.156Z,955.58
2018-10-21T14:06:58.537Z,955.57
2018-10-21T14:09:24.803Z,955.53
2018-10-21T14:11:51.132Z,955.58
2018-10-21T14:14:17.463Z,955.69
2018-10-21T14:16:43.870Z,955.66
2018-10-21T14:19:10.107Z,955.69
2018-10-21T14:21:36.435Z,955.62
2018-10-21T14:24:02.794Z,955.61
2018-10-21T14:26:29.094Z,955.59
2018-10-21T14:28:55.410Z,955.64
2018-10-21T14:31:21.732Z,955.61
2018-10-21T14:33:48.046Z,955.57
2018-10-21T14:36:14.425Z,955.68
2018-10-21T14:38:40.752Z,955.61
2018-10-21T14:41:07.077Z,955.65
2018-10-21T14:43:33.407Z,955.68
2018-10-21T14:45:59.917Z,955.62
2018-10-21T14:48:26.071Z,955.72
2018-10-21T14:50:52.386Z,955.69
2018-10-21T14:53:18.725Z,955.73
2018-10-21T14:55:45.111Z,955.65
2018-10-21T14:58:11.441Z,955.71
2018-10-21T15:00:37.899Z,955.75
2018-10-21T15:03:04.177Z,955.75
2018-10-21T15:05:30.496Z,955.81
2018-10-21T15:07:56.798Z,955.80
2018-10-21T15:10:23.108Z,955.84
2018-10-21T15:12:49.449Z,955.88
2018-10-21T15:15:15.812Z,955.97
2018-10-21T15:17:42.126Z,955.99
2018-10-21T15:20:08.512Z,955.99
2018-10-21T15:22:34.844Z,955.99
2018-10-21T15:25:01.186Z,955.94
2018-10-21T15:27:27.518Z,955.99
2018-10-21T15:29:53.899Z,956.09
2018-10-21T15:32:21.541Z,956.13
2018-10-21T15:34:46.676Z,956.15
2018-10-21T15:37:12.965Z,956.24
2018-10-21T15:39:39.338Z,956.28
2018-10-21T15:42:05.644Z,956.31
2018-10-21T15:44:31.971Z,956.33
2018-10-21T15:46:58.289Z,956.36
2018-10-21T15:49:24.615Z,956.42
2018-10-21T15:51:50.992Z,956.43
2018-10-21T15:54:17.274Z,956.49
2018-10-21T15:56:43.605Z,956.50
2018-10-21T15:59:09.941Z,956.53
2018-10-21T16:01:36.268Z,956.56
2018-10-21T16:04:02.657Z,956.57
2018-10-21T16:06:28.911Z,956.59
2018-10-21T16:08:55.252Z,956.68
2018-10-21T16:11:21.579Z,956.67
2018-10-21T16:13:47.962Z,956.63
2018-10-21T16:16:14.286Z,956.66
2018-10-21T16:18:40.585Z,956.74
2018-10-21T16:21:06.907Z,956.63
2018-10-21T16:23:33.237Z,956.68
2018-10-21T16:25:59.648Z,956.70
2018-10-21T16:28:25.981Z,956.81
2018-10-21T16:30:52.277Z,956.78
2018-10-21T16:33:20.567Z,956.97
2018-10-21T16:35:44.934Z,956.93
2018-10-21T16:38:11.306Z,957.00
2018-10-21T16:40:37.594Z,957.03
2018-10-21T16:43:03.929Z,957.03
2018-10-21T16:45:30.259Z,957.03
2018-10-21T16:47:56.640Z,957.04
2018-10-21T16:50:22.946Z,956.95
2018-10-21T16:52:49.341Z,956.91
2018-10-21T16:55:15.698Z,956.97
2018-10-21T16:57:42.067Z,957.01
2018-10-21T17:00:08.423Z,957.04
2018-10-21T17:02:34.705Z,957.03
2018-10-21T17:05:01.030Z,957.09
2018-10-21T17:07:27.365Z,957.08
2018-10-21T17:09:54.052Z,957.09
2018-10-21T17:12:20.143Z,957.10
2018-10-21T17:14:46.472Z,957.12
2018-10-21T17:17:12.846Z,957.16
2018-10-21T17:19:39.114Z,957.19
2018-10-21T17:22:05.462Z,957.18
2018-10-21T17:24:31.822Z,957.11
2018-10-21T17:26:58.156Z,957.11
2018-10-21T17:29:24.493Z,957.12
2018-10-21T17:31:51.177Z,957.09
2018-10-21T17:34:17.582Z,957.09
2018-10-21T17:36:43.839Z,957.10
2018-10-21T17:39:10.159Z,957.08
2018-10-21T17:41:36.497Z,957.08
2018-10-21T17:44:02.823Z,957.15
2018-10-21T17:46:29.192Z,957.20
2018-10-21T17:48:56.505Z,957.14
2018-10-21T17:51:23.166Z,957.11
2018-10-21T17:53:49.490Z,957.13
2018-10-21T17:56:15.779Z,957.05
2018-10-21T17:58:42.211Z,957.09
2018-10-21T18:01:08.455Z,957.14
2018-10-21T18:03:34.773Z,957.23
2018-10-21T18:06:01.116Z,957.18
2018-10-21T18:08:27.447Z,957.16
2018-10-21T18:10:53.766Z,957.20
2018-10-21T18:13:20.083Z,957.21
2018-10-21T18:15:46.417Z,957.25
2018-10-21T18:18:12.779Z,957.20
2018-10-21T18:20:39.152Z,957.20
2018-10-21T18:23:05.424Z,957.15
2018-10-21T18:25:31.747Z,957.17
2018-10-21T18:27:58.114Z,957.21
2018-10-21T18:30:30.921Z,957.17
2018-10-21T18:32:50.995Z,957.24
2018-10-21T18:35:17.283Z,957.33
2018-10-21T18:37:43.621Z,957.34
2018-10-21T18:40:10.009Z,957.43
2018-10-21T18:42:36.386Z,957.34
2018-10-21T18:45:02.653Z,957.42
2018-10-21T18:47:28.974Z,957.47
2018-10-21T18:49:55.319Z,957.45
2018-10-21T18:52:21.675Z,957.46
2018-10-21T18:54:48.311Z,957.45
2018-10-21T18:57:14.604Z,957.39
2018-10-21T18:59:40.927Z,957.45
2018-10-21T19:02:07.260Z,957.47
2018-10-21T19:04:33.600Z,957.48
2018-10-21T19:06:59.937Z,957.49
2018-10-21T19:09:26.281Z,957.51
2018-10-21T19:11:52.593Z,957.56
2018-10-21T19:14:18.918Z,957.51
2018-10-21T19:16:45.243Z,957.62
2018-10-21T19:19:11.668Z,957.60
2018-10-21T19:21:37.899Z,957.64
2018-10-21T19:24:04.216Z,957.62
2018-10-21T19:26:30.568Z,957.63
2018-10-21T19:28:56.855Z,957.62
2018-10-21T19:31:23.197Z,957.60
2018-10-21T19:33:49.534Z,957.60
2018-10-21T19:36:15.862Z,957.71
2018-10-21T19:38:42.197Z,957.66
2018-10-21T19:41:08.507Z,957.73
2018-10-21T19:43:34.892Z,957.65
2018-10-21T19:46:01.183Z,957.73
2018-10-21T19:48:27.510Z,957.68
2018-10-21T19:50:53.873Z,957.72
2018-10-21T19:53:20.183Z,957.75
2018-10-21T19:55:46.533Z,957.69
2018-10-21T19:58:12.896Z,957.66
2018-10-21T20:00:39.175Z,957.78
2018-10-21T20:03:05.510Z,957.83
2018-10-21T20:05:31.831Z,957.89
2018-10-21T20:07:58.151Z,957.90
2018-10-21T20:10:24.478Z,957.87
2018-10-21T20:12:50.798Z,957.90
2018-10-21T20:15:17.125Z,957.95
2018-10-21T20:17:43.455Z,957.95
2018-10-21T20:20:10.065Z,957.91
2018-10-21T20:22:36.386Z,957.85
2018-10-21T20:25:02.778Z,957.83
2018-10-21T20:27:29.090Z,957.82
2018-10-21T20:29:55.424Z,957.94
2018-10-21T20:32:21.738Z,957.85
2018-10-21T20:34:48.062Z,957.92
2018-10-21T20:37:14.433Z,957.88
2018-10-21T20:39:40.802Z,957.98
2018-10-21T20:42:07.195Z,957.97
2018-10-21T20:44:33.530Z,957.94
2018-10-21T20:46:59.854Z,957.97
2018-10-21T20:49:26.179Z,957.93
2018-10-21T20:51:52.641Z,957.89
2018-10-21T20:54:19.019Z,957.93
2018-10-21T20:56:45.289Z,957.93
2018-10-21T20:59:11.625Z,957.93
2018-10-21T21:01:37.968Z,957.96
2018-10-21T21:04:04.327Z,957.91
2018-10-21T21:06:30.627Z,957.98
2018-10-21T21:08:56.958Z,957.99
2018-10-21T21:11:23.331Z,958.03
2018-10-21T21:13:49.669Z,958.01
2018-10-21T21:16:16.067Z,957.98
2018-10-21T21:18:42.314Z,957.96
2018-10-21T21:21:08.651Z,957.90
2018-10-21T21:23:34.974Z,957.96
2018-10-21T21:26:01.343Z,957.98
2018-10-21T21:28:27.671Z,957.96
2018-10-21T21:30:53.997Z,957.95
2018-10-21T21:33:20.310Z,957.91
2018-10-21T21:35:46.657Z,957.92
2018-10-21T21:38:12.988Z,957.96
2018-10-21T21:40:39.322Z,957.87
2018-10-21T21:43:05.646Z,957.94
2018-10-21T21:45:31.963Z,957.91
2018-10-21T21:47:58.318Z,957.89
2018-10-21T21:50:24.628Z,957.85
2018-10-21T21:52:50.961Z,957.83
2018-10-21T21:55:17.270Z,957.86
2018-10-21T21:57:43.589Z,957.81
2018-10-21T22:00:10.015Z,957.83
2018-10-21T22:02:36.277Z,957.80
2018-10-21T22:05:02.666Z,957.81
2018-10-21T22:07:28.970Z,957.82
2018-10-21T22:09:55.300Z,957.79
2018-10-21T22:12:21.808Z,957.84
2018-10-21T22:14:47.959Z,957.83
2018-10-21T22:17:14.303Z,957.88
2018-10-21T22:19:40.604Z,957.85
2018-10-21T22:22:06.990Z,957.80
2018-10-21T22:24:33.257Z,957.89
2018-10-21T22:26:59.560Z,957.92
2018-10-21T22:29:25.868Z,957.86
2018-10-21T22:31:52.178Z,957.86
2018-10-21T22:34:18.515Z,957.81
2018-10-21T22:36:44.838Z,957.82
2018-10-21T22:39:11.107Z,957.83
2018-10-21T22:41:37.505Z,957.88
2018-10-21T22:44:03.831Z,957.94
2018-10-21T22:46:30.177Z,957.90
2018-10-21T22:48:56.446Z,957.98
2018-10-21T22:51:22.762Z,957.94
2018-10-21T22:53:49.060Z,957.93
2018-10-21T22:56:15.398Z,957.95
2018-10-21T22:58:41.742Z,957.94
2018-10-21T23:01:08.109Z,957.93
2018-10-21T23:03:34.406Z,957.98
2018-10-21T23:06:00.744Z,957.96
2018-10-21T23:08:27.078Z,958.06
2018-10-21T23:10:53.405Z,958.06
2018-10-21T23:13:19.780Z,958.08
2018-10-21T23:15:46.101Z,958.02
2018-10-21T23:18:12.469Z,958.03
2018-10-21T23:20:38.739Z,958.11
2018-10-21T23:23:05.042Z,958.03
2018-10-21T23:25:31.348Z,958.02
2018-10-21T23:27:57.671Z,958.05
2018-10-21T23:30:23.999Z,958.09
2018-10-21T23:32:50.336Z,958.01
2018-10-21T23:35:16.680Z,958.03
2018-10-21T23:37:43.011Z,958.05
2018-10-21T23:40:09.402Z,958.09
2018-10-21T23:42:35.705Z,958.09
2018-10-21T23:45:02.070Z,958.02
2018-10-21T23:47:28.362Z,958.09
2018-10-21T23:49:54.687Z,958.07
2018-10-21T23:52:21.071Z,958.04
2018-10-21T23:54:47.311Z,958.03
2018-10-21T23:57:13.648Z,958.02
2018-10-21T23:59:39.985Z,957.97
